Time;durP1;ratioP1;P1;durP2;ratioP2;P2;SDS_P1;SDS_P2;PMS_P1;PMS_P2;Temp;Humidity;BMP_temperature;BMP_pressure;BME280_temperature;BME280_humidity;BME280_pressure;Samples;Min_cycle;Max_cycle;Signal;HPM_P1;HPM_P2
2021/06/21 00:00:19;;;;;;;3.80;3.28;;;24.40;63.00;;;;;;10424278;28;20022;-53
2021/06/21 00:05:20;;;;;;;4.38;3.30;;;24.40;63.00;;;;;;10414745;28;20132;-53
2021/06/21 00:10:20;;;;;;;3.65;3.33;;;24.40;63.00;;;;;;10415719;28;20089;-53
2021/06/21 00:15:24;;;;;;;3.22;2.92;;;24.40;63.10;;;;;;10415427;28;20564;-51
2021/06/21 00:20:26;;;;;;;4.30;3.28;;;24.40;63.00;;;;;;10415284;28;20156;-52
2021/06/21 00:25:26;;;;;;;4.25;3.60;;;24.40;63.00;;;;;;10415210;28;20033;-53
2021/06/21 00:30:27;;;;;;;3.33;2.80;;;24.40;63.00;;;;;;10413976;28;20033;-52
2021/06/21 00:35:28;;;;;;;4.50;3.20;;;24.30;62.90;;;;;;10414821;28;20067;-51
2021/06/21 00:40:29;;;;;;;4.10;3.70;;;24.40;63.00;;;;;;10414844;28;20033;-53
2021/06/21 00:45:30;;;;;;;3.83;3.42;;;24.40;62.90;;;;;;10414391;28;20035;-52
2021/06/21 00:50:31;;;;;;;3.70;3.30;;;24.30;62.80;;;;;;10413096;28;20176;-52
2021/06/21 00:55:32;;;;;;;3.30;3.00;;;24.40;62.90;;;;;;10414593;28;20031;-52
2021/06/21 01:00:33;;;;;;;3.65;3.20;;;24.40;62.90;;;;;;10421523;28;20026;-49
2021/06/21 01:05:35;;;;;;;4.10;3.60;;;24.30;62.80;;;;;;10413849;28;20382;-52
2021/06/21 01:10:43;;;;;;;4.25;3.30;;;24.30;62.80;;;;;;10413901;28;20104;-52
2021/06/21 01:16:21;;;;;;;4.55;2.80;;;24.30;63.40;;;;;;10412566;28;20052;-51
2021/06/21 01:22:13;;;;;;;3.45;3.05;;;24.30;62.70;;;;;;10428913;28;20469;-53
2021/06/21 01:27:50;;;;;;;3.95;3.28;;;24.30;62.80;;;;;;10413635;28;20887;-53
2021/06/21 01:32:59;;;;;;;4.45;3.47;;;24.30;62.60;;;;;;10413931;28;20037;-52
2021/06/21 01:38:12;;;;;;;4.55;3.15;;;24.30;62.50;;;;;;10411958;28;20086;-53
2021/06/21 01:43:16;;;;;;;3.92;3.28;;;24.30;62.50;;;;;;10413279;28;20025;-54
2021/06/21 01:48:22;;;;;;;5.15;3.17;;;24.30;62.50;;;;;;10413008;28;20057;-48
2021/06/21 01:53:25;;;;;;;3.72;3.33;;;24.30;62.50;;;;;;10412784;28;20033;-53
2021/06/21 01:58:29;;;;;;;4.13;3.45;;;24.20;62.30;;;;;;10428239;28;20449;-52
2021/06/21 02:03:30;;;;;;;5.38;2.67;;;24.20;62.30;;;;;;10419533;28;20492;-52
2021/06/21 02:08:33;;;;;;;4.32;3.15;;;24.20;62.30;;;;;;10419415;28;20029;-48
2021/06/21 02:13:35;;;;;;;3.80;3.00;;;24.20;62.30;;;;;;10419852;28;20033;-52
2021/06/21 02:18:36;;;;;;;4.53;3.22;;;24.20;62.30;;;;;;10419224;28;20148;-50
2021/06/21 02:23:38;;;;;;;4.57;3.38;;;24.20;62.20;;;;;;10419123;28;20022;-50
2021/06/21 02:28:40;;;;;;;3.58;2.90;;;24.20;62.20;;;;;;10419819;28;20545;-51
2021/06/21 02:33:41;;;;;;;3.83;3.42;;;24.20;62.30;;;;;;10419983;28;20040;-53
2021/06/21 02:38:42;;;;;;;3.85;2.90;;;24.20;62.30;;;;;;10419222;28;20043;-54
2021/06/21 02:43:42;;;;;;;4.30;3.05;;;24.20;62.20;;;;;;10419178;28;20466;-54
2021/06/21 02:48:44;;;;;;;4.28;2.70;;;24.20;62.20;;;;;;10434271;28;20460;-53
2021/06/21 02:54:23;;;;;;;4.60;3.22;;;24.20;62.20;;;;;;10418885;28;20045;-49
2021/06/21 02:59:25;;;;;;;3.35;2.80;;;24.20;62.20;;;;;;10419857;28;20398;-50
2021/06/21 03:04:27;;;;;;;3.17;2.88;;;24.20;62.10;;;;;;10417017;28;20033;-52
2021/06/21 03:09:29;;;;;;;2.90;2.60;;;24.10;62.00;;;;;;10416871;28;20431;-50
2021/06/21 03:14:31;;;;;;;4.25;3.05;;;24.10;61.90;;;;;;10416895;28;20068;-51
2021/06/21 03:19:32;;;;;;;4.45;2.75;;;24.10;61.90;;;;;;10417086;28;20036;-52
2021/06/21 03:24:33;;;;;;;3.15;2.80;;;24.10;61.90;;;;;;10416497;28;20034;-53
2021/06/21 03:29:37;;;;;;;3.50;3.03;;;24.10;61.90;;;;;;10417555;28;20037;-53
2021/06/21 03:34:37;;;;;;;2.95;2.65;;;24.10;61.80;;;;;;10417247;28;20494;-51
2021/06/21 03:39:38;;;;;;;3.67;2.53;;;24.10;61.80;;;;;;10432237;28;20136;-53
2021/06/21 03:44:39;;;;;;;3.53;2.72;;;24.10;61.60;;;;;;10415673;28;20437;-52
2021/06/21 03:49:44;;;;;;;3.67;2.50;;;24.10;61.70;;;;;;10416392;28;20180;-53
2021/06/21 03:54:44;;;;;;;3.28;2.40;;;24.10;61.70;;;;;;10424730;28;20037;-54
2021/06/21 03:59:45;;;;;;;3.10;2.80;;;24.00;61.60;;;;;;10422228;28;20424;-53
2021/06/21 04:04:45;;;;;;;3.75;2.45;;;24.10;61.80;;;;;;10414390;28;20104;-50
2021/06/21 04:09:46;;;;;;;3.00;2.70;;;24.00;61.60;;;;;;10412132;28;20071;-51
2021/06/21 04:14:48;;;;;;;3.70;2.83;;;24.00;61.50;;;;;;10415048;28;20147;-53
2021/06/21 04:19:50;;;;;;;3.15;2.25;;;24.00;61.50;;;;;;10415473;28;20029;-53
2021/06/21 04:24:50;;;;;;;2.72;2.35;;;24.00;61.40;;;;;;10415720;28;20031;-53
2021/06/21 04:29:51;;;;;;;2.30;1.98;;;24.00;61.40;;;;;;10415518;28;20053;-53
2021/06/21 04:34:52;;;;;;;3.83;2.30;;;24.00;61.40;;;;;;10415208;28;20021;-52
2021/06/21 04:39:53;;;;;;;4.00;2.33;;;24.00;61.40;;;;;;10413857;28;20056;-53
2021/06/21 04:44:53;;;;;;;3.45;2.28;;;24.00;61.40;;;;;;10415030;28;20151;-53
2021/06/21 04:49:56;;;;;;;2.60;2.30;;;24.00;61.40;;;;;;10414450;28;20494;-52
2021/06/21 04:55:01;;;;;;;2.45;2.25;;;23.90;61.30;;;;;;10414818;28;20100;-51
2021/06/21 05:00:10;;;;;;;1.98;1.70;;;23.90;61.30;;;;;;10423070;28;20075;-51
2021/06/21 05:05:11;;;;;;;2.63;2.00;;;23.90;61.30;;;;;;10414452;28;20034;-51
2021/06/21 05:10:13;;;;;;;2.60;2.10;;;23.90;61.30;;;;;;10414458;28;20107;-49
2021/06/21 05:15:15;;;;;;;2.30;2.10;;;23.90;61.80;;;;;;10414151;28;20029;-51
2021/06/21 05:20:16;;;;;;;2.05;1.83;;;23.90;61.20;;;;;;10414269;28;20052;-52
2021/06/21 05:25:16;;;;;;;2.42;1.95;;;23.90;61.20;;;;;;10413776;28;20033;-50
2021/06/21 05:30:18;;;;;;;2.70;2.40;;;23.80;61.10;;;;;;10418417;28;20163;-50
2021/06/21 05:35:20;;;;;;;2.20;2.00;;;23.90;61.20;;;;;;10422071;28;20041;-54
2021/06/21 05:40:21;;;;;;;2.38;1.65;;;23.90;61.20;;;;;;10422341;28;20017;-52
2021/06/21 05:45:22;;;;;;;3.22;1.80;;;23.90;61.10;;;;;;10437556;28;20032;-52
2021/06/21 05:50:22;;;;;;;2.13;1.90;;;23.90;61.10;;;;;;10421592;28;20124;-53
2021/06/21 05:55:24;;;;;;;1.70;1.60;;;23.90;61.20;;;;;;10421629;28;20095;-51
2021/06/21 06:00:25;;;;;;;2.25;2.00;;;23.80;61.10;;;;;;10429400;28;20026;-52
2021/06/21 06:05:25;;;;;;;2.33;1.75;;;23.80;61.00;;;;;;10421134;28;20030;-50
2021/06/21 06:10:26;;;;;;;2.47;1.85;;;23.80;61.00;;;;;;10421131;28;20033;-53
2021/06/21 06:15:27;;;;;;;2.38;1.83;;;23.80;61.10;;;;;;10420649;28;20065;-53
2021/06/21 06:20:28;;;;;;;2.33;1.40;;;23.80;61.10;;;;;;10420445;28;20390;-53
2021/06/21 06:25:28;;;;;;;1.73;1.35;;;23.80;61.10;;;;;;10420423;28;20108;-52
2021/06/21 06:30:29;;;;;;;1.48;1.38;;;23.80;61.00;;;;;;10420278;28;20113;-54
2021/06/21 06:35:30;;;;;;;1.60;1.50;;;23.80;61.00;;;;;;10419939;28;20033;-53
2021/06/21 06:40:31;;;;;;;1.95;1.30;;;23.80;61.00;;;;;;10419552;28;20455;-52
2021/06/21 06:45:32;;;;;;;1.50;1.20;;;23.80;61.00;;;;;;10418336;28;20056;-54
2021/06/21 06:50:32;;;;;;;1.33;1.20;;;23.80;61.00;;;;;;10409355;28;20466;-53
2021/06/21 07:00:52;;;;;;;1.77;1.40;;;23.80;61.00;;;;;;10427512;28;20038;-52
2021/06/21 07:05:53;;;;;;;1.73;1.30;;;23.70;60.90;;;;;;10434058;28;20116;-52
2021/06/21 07:10:53;;;;;;;2.00;1.52;;;23.70;60.90;;;;;;10417508;28;20041;-54
2021/06/21 07:15:54;;;;;;;2.05;1.38;;;23.70;61.00;;;;;;10418138;28;20026;-53
2021/06/21 07:20:55;;;;;;;1.20;1.10;;;23.70;61.70;;;;;;10418230;28;20108;-53
2021/06/21 07:25:59;;;;;;;2.35;1.52;;;23.70;61.00;;;;;;10416743;28;20121;-53
2021/06/21 07:30:59;;;;;;;2.45;1.73;;;23.70;61.10;;;;;;10417982;28;20355;-53
2021/06/21 07:36:01;;;;;;;1.80;1.35;;;23.70;61.10;;;;;;10417438;28;20112;-53
2021/06/21 07:41:03;;;;;;;1.42;1.10;;;23.70;61.10;;;;;;10417723;28;20495;-53
2021/06/21 07:46:05;;;;;;;1.70;1.50;;;23.70;61.00;;;;;;10417310;28;20033;-52
2021/06/21 07:51:07;;;;;;;1.52;1.38;;;23.70;61.10;;;;;;10416020;28;20045;-52
2021/06/21 07:56:13;;;;;;;2.25;1.20;;;23.70;61.10;;;;;;10416894;28;20037;-53
2021/06/21 08:01:15;;;;;;;1.30;1.10;;;23.70;61.20;;;;;;10424986;28;20449;-53
2021/06/21 08:06:15;;;;;;;1.35;1.10;;;23.70;61.30;;;;;;10416461;28;20037;-53
2021/06/21 08:11:16;;;;;;;1.73;1.40;;;23.70;61.20;;;;;;10416157;28;20450;-53
2021/06/21 08:16:17;;;;;;;0.95;0.90;;;23.70;61.20;;;;;;10416100;28;20108;-54
2021/06/21 08:21:18;;;;;;;1.33;1.13;;;23.70;61.30;;;;;;10416078;28;20370;-53
2021/06/21 08:26:19;;;;;;;1.95;1.40;;;23.60;61.20;;;;;;10415521;28;20509;-49
2021/06/21 08:31:19;;;;;;;2.30;1.30;;;23.60;61.20;;;;;;10415686;28;20033;-52
2021/06/21 08:36:20;;;;;;;1.02;0.90;;;23.60;61.10;;;;;;10415216;28;20480;-52
2021/06/21 08:41:22;;;;;;;1.58;1.00;;;23.60;61.20;;;;;;10415157;28;20072;-54
2021/06/21 08:46:22;;;;;;;1.50;1.40;;;23.60;61.20;;;;;;10413729;28;20033;-53
2021/06/21 08:51:23;;;;;;;1.23;1.08;;;23.60;61.30;;;;;;10414610;28;20041;-52
2021/06/21 08:56:24;;;;;;;0.85;0.82;;;23.60;61.30;;;;;;10414694;28;20025;-51
2021/06/21 09:01:25;;;;;;;1.15;1.05;;;23.60;61.60;;;;;;10423147;28;20053;-54
2021/06/21 09:06:33;;;;;;;1.50;1.15;;;23.60;61.40;;;;;;10413145;28;20025;-54
2021/06/21 09:11:46;;;;;;;1.02;0.90;;;23.60;61.50;;;;;;10412983;28;20029;-53
2021/06/21 09:16:46;;;;;;;1.35;1.20;;;23.60;61.60;;;;;;10414209;28;20454;-53
2021/06/21 09:21:47;;;;;;;1.23;1.00;;;23.60;61.50;;;;;;10413035;28;20105;-50
2021/06/21 09:27:06;;;;;;;1.15;0.95;;;23.60;61.50;;;;;;10414057;28;20087;-53
2021/06/21 09:32:08;;;;;;;1.10;1.00;;;23.60;61.60;;;;;;10414127;28;20094;-51
2021/06/21 09:37:18;;;;;;;0.98;0.82;;;23.60;61.70;;;;;;10412249;28;20034;-52
2021/06/21 09:42:26;;;;;;;2.50;1.00;;;23.60;61.60;;;;;;10412709;28;20033;-54
2021/06/21 09:47:34;;;;;;;1.52;0.95;;;23.60;61.70;;;;;;10413351;28;20026;-51
2021/06/21 09:52:48;;;;;;;1.10;0.90;;;23.60;61.80;;;;;;10400725;28;20099;-52
2021/06/21 09:58:12;;;;;;;1.40;1.02;;;23.60;61.60;;;;;;10421533;28;20547;-53
2021/06/21 10:03:14;;;;;;;1.00;0.80;;;23.60;61.80;;;;;;10413535;28;20061;-53
2021/06/21 10:08:15;;;;;;;0.77;0.77;;;23.60;61.70;;;;;;10413445;28;20032;-49
2021/06/21 10:13:16;;;;;;;0.90;0.80;;;23.50;61.80;;;;;;10413294;28;20041;-51
2021/06/21 10:18:17;;;;;;;1.48;1.02;;;23.50;61.90;;;;;;10418803;28;20430;-53
2021/06/21 10:23:17;;;;;;;1.17;0.95;;;23.50;61.90;;;;;;10420047;28;20434;-52
2021/06/21 10:28:18;;;;;;;0.95;0.90;;;23.50;62.00;;;;;;10418620;28;20033;-52
2021/06/21 10:33:19;;;;;;;1.10;0.95;;;23.50;62.10;;;;;;10418493;28;20505;-53
2021/06/21 10:38:20;;;;;;;1.35;1.10;;;23.50;61.90;;;;;;10418750;28;20030;-50
2021/06/21 10:43:47;;;;;;;0.75;0.70;;;23.50;61.90;;;;;;10435098;28;20116;-51
2021/06/21 10:49:00;;;;;;;1.33;0.90;;;23.50;62.00;;;;;;10419768;28;20050;-49
2021/06/21 10:54:07;;;;;;;1.48;0.88;;;23.50;62.00;;;;;;10419452;28;20037;-52
2021/06/21 10:59:16;;;;;;;1.00;0.90;;;23.50;62.10;;;;;;10442935;28;20470;-49
2021/06/21 11:04:32;;;;;;;0.70;0.70;;;23.50;62.10;;;;;;10419070;28;20038;-52
2021/06/21 11:09:50;;;;;;;0.98;0.88;;;23.50;62.10;;;;;;10418868;28;20490;-52
2021/06/21 11:15:03;;;;;;;1.92;0.93;;;23.50;62.00;;;;;;10418685;28;20045;-53
2021/06/21 11:20:27;;;;;;;1.00;0.88;;;23.50;62.10;;;;;;10418329;28;20068;-49
2021/06/21 11:25:30;;;;;;;1.38;0.88;;;23.50;62.20;;;;;;10417373;28;20060;-50
2021/06/21 11:30:44;;;;;;;1.00;0.90;;;23.50;62.20;;;;;;10416252;28;20021;-50
2021/06/21 11:36:01;;;;;;;1.10;0.80;;;23.50;62.20;;;;;;10417905;28;20037;-51
2021/06/21 11:41:23;;;;;;;1.15;0.80;;;23.50;62.20;;;;;;10417644;28;20025;-52
2021/06/21 11:46:48;;;;;;;1.30;0.85;;;23.50;62.10;;;;;;10417607;28;20044;-50
2021/06/21 11:51:59;;;;;;;0.60;0.60;;;23.50;62.20;;;;;;10416899;28;20552;-50
2021/06/21 11:57:00;;;;;;;0.95;0.73;;;23.50;62.30;;;;;;10421099;28;20025;-53
2021/06/21 12:02:20;;;;;;;1.05;0.82;;;23.50;62.30;;;;;;10420928;28;20071;-50
2021/06/21 12:07:35;;;;;;;1.17;0.98;;;23.50;62.10;;;;;;10416591;28;20032;-53
2021/06/21 12:12:38;;;;;;;1.10;0.82;;;23.50;62.30;;;;;;10416174;28;20478;-52
2021/06/21 12:17:39;;;;;;;1.00;0.90;;;23.50;62.30;;;;;;10416217;28;20393;-53
2021/06/21 12:22:52;;;;;;;1.42;1.00;;;23.50;62.20;;;;;;10416025;28;20104;-51
2021/06/21 12:27:54;;;;;;;0.77;0.77;;;23.50;62.20;;;;;;10414505;28;20220;-53
2021/06/21 12:32:54;;;;;;;0.98;0.88;;;23.50;62.00;;;;;;10414016;28;20035;-51
2021/06/21 12:37:55;;;;;;;1.13;1.02;;;23.50;62.00;;;;;;10413434;28;20116;-50
2021/06/21 12:42:56;;;;;;;1.00;0.90;;;23.50;62.10;;;;;;10415176;28;20104;-49
2021/06/21 12:47:56;;;;;;;1.23;0.98;;;23.50;62.10;;;;;;10414840;28;20084;-52
2021/06/21 12:52:57;;;;;;;1.15;0.95;;;23.50;62.10;;;;;;10415232;28;20033;-53
2021/06/21 12:58:03;;;;;;;1.42;0.90;;;23.50;62.10;;;;;;10421261;28;20057;-52
2021/06/21 13:03:11;;;;;;;1.45;1.08;;;23.50;62.00;;;;;;10414477;28;20021;-51
2021/06/21 13:08:15;;;;;;;1.17;0.97;;;23.50;62.00;;;;;;10414613;28;20033;-52
2021/06/21 13:13:16;;;;;;;1.45;0.95;;;23.50;62.10;;;;;;10414479;28;20276;-50
2021/06/21 13:18:16;;;;;;;1.08;0.90;;;23.50;62.10;;;;;;10412928;28;20056;-52
2021/06/21 13:23:18;;;;;;;1.27;1.00;;;23.50;62.00;;;;;;10414013;28;20105;-52
2021/06/21 13:28:19;;;;;;;1.25;0.90;;;23.50;62.00;;;;;;10414423;28;20547;-53
2021/06/21 13:33:22;;;;;;;1.02;0.80;;;23.50;62.00;;;;;;10414131;28;20026;-48
2021/06/21 13:38:29;;;;;;;1.30;0.80;;;23.40;62.00;;;;;;10412591;28;20543;-51
2021/06/21 13:43:35;;;;;;;1.42;0.98;;;23.50;62.10;;;;;;10414086;28;20026;-52
2021/06/21 13:48:36;;;;;;;1.23;0.98;;;23.50;62.10;;;;;;10413416;28;20413;-53
2021/06/21 13:53:37;;;;;;;1.05;0.88;;;23.50;62.10;;;;;;10408250;28;20112;-51
2021/06/21 13:58:42;;;;;;;1.80;1.05;;;23.50;62.10;;;;;;10429569;28;20055;-45
2021/06/21 14:03:52;;;;;;;3.72;1.00;;;23.40;62.10;;;;;;10421789;28;20021;-52
2021/06/21 14:08:55;;;;;;;1.08;0.80;;;23.50;62.30;;;;;;10420269;28;20037;-53
2021/06/21 14:13:57;;;;;;;2.17;1.23;;;23.50;62.30;;;;;;10420794;28;20079;-53
2021/06/21 14:18:59;;;;;;;1.95;0.90;;;23.50;62.10;;;;;;10420729;28;20026;-52
2021/06/21 14:24:00;;;;;;;2.28;1.05;;;23.50;62.20;;;;;;10420696;28;20068;-53
2021/06/21 14:29:01;;;;;;;2.92;1.08;;;23.50;62.30;;;;;;10420304;28;20091;-53
2021/06/21 14:34:02;;;;;;;1.30;0.93;;;23.50;62.30;;;;;;10420337;28;20065;-52
2021/06/21 14:39:04;;;;;;;2.67;1.50;;;23.50;62.20;;;;;;10420056;28;20385;-54
2021/06/21 14:44:05;;;;;;;1.70;1.17;;;23.50;62.20;;;;;;10419859;28;20032;-54
2021/06/21 14:49:07;;;;;;;1.88;0.90;;;23.50;62.10;;;;;;10419363;28;20379;-54
2021/06/21 14:54:08;;;;;;;1.13;1.00;;;23.40;62.00;;;;;;10419291;28;20025;-53
2021/06/21 14:59:09;;;;;;;1.20;0.93;;;23.50;62.20;;;;;;10427036;28;20025;-54
2021/06/21 15:04:09;;;;;;;1.33;1.02;;;23.50;62.30;;;;;;10419235;28;20160;-54
2021/06/21 15:09:10;;;;;;;0.98;0.73;;;23.50;62.30;;;;;;10418880;28;20040;-54
2021/06/21 15:14:11;;;;;;;1.38;1.00;;;23.40;62.30;;;;;;10417929;28;20026;-53
2021/06/21 15:19:12;;;;;;;1.63;1.00;;;23.40;62.30;;;;;;10418468;28;20112;-54
2021/06/21 15:24:12;;;;;;;1.75;0.98;;;23.40;62.30;;;;;;10418220;28;20104;-53
2021/06/21 15:29:13;;;;;;;1.45;1.02;;;23.40;62.30;;;;;;10418433;28;20036;-53
2021/06/21 15:34:14;;;;;;;1.80;1.10;;;23.40;62.40;;;;;;10416718;28;20037;-52
2021/06/21 15:39:15;;;;;;;1.33;1.00;;;23.40;62.40;;;;;;10433068;28;20421;-53
2021/06/21 15:44:15;;;;;;;1.13;0.90;;;23.40;62.50;;;;;;10417455;28;20022;-53
2021/06/21 15:49:16;;;;;;;1.27;1.02;;;23.40;62.50;;;;;;10417234;28;20098;-54
2021/06/21 15:54:17;;;;;;;2.20;1.10;;;23.40;62.60;;;;;;10416992;28;20108;-52
2021/06/21 15:59:18;;;;;;;1.55;1.10;;;23.40;62.60;;;;;;10424609;28;20113;-52
2021/06/21 16:04:19;;;;;;;1.20;0.80;;;23.40;62.60;;;;;;10416876;28;20112;-52
2021/06/21 16:09:19;;;;;;;1.80;1.17;;;23.40;62.60;;;;;;10416691;28;20475;-53
2021/06/21 16:14:20;;;;;;;2.45;1.20;;;23.40;62.50;;;;;;10415543;28;20080;-52
2021/06/21 16:19:25;;;;;;;2.10;1.02;;;23.40;62.70;;;;;;10416094;28;20034;-51
2021/06/21 16:24:26;;;;;;;1.67;1.05;;;23.30;62.50;;;;;;10415952;28;20060;-53
2021/06/21 16:29:27;;;;;;;1.58;0.95;;;23.30;62.60;;;;;;10415964;28;20094;-54
2021/06/21 16:34:28;;;;;;;1.10;0.90;;;23.30;62.60;;;;;;10415390;28;20119;-51
2021/06/21 16:39:28;;;;;;;0.80;0.80;;;23.30;62.60;;;;;;10415316;28;20072;-51
2021/06/21 16:44:29;;;;;;;1.42;0.93;;;23.30;62.70;;;;;;10415328;28;20049;-51
2021/06/21 16:49:30;;;;;;;2.38;1.17;;;23.30;62.70;;;;;;10414152;28;20490;-53
2021/06/21 16:54:31;;;;;;;1.30;1.02;;;23.30;62.70;;;;;;10413602;28;20068;-52
2021/06/21 16:59:32;;;;;;;1.50;0.90;;;23.30;62.50;;;;;;10420857;28;20017;-54
2021/06/21 17:04:33;;;;;;;2.33;1.02;;;23.30;62.60;;;;;;10413004;28;20060;-52
2021/06/21 17:09:33;;;;;;;0.90;0.70;;;23.30;63.20;;;;;;10413234;28;20026;-52
2021/06/21 17:14:34;;;;;;;1.40;0.80;;;23.30;62.70;;;;;;10412817;28;20526;-54
2021/06/21 17:19:36;;;;;;;1.13;0.98;;;23.30;62.60;;;;;;10411297;28;20440;-54
2021/06/21 17:24:39;;;;;;;1.42;0.85;;;23.30;62.50;;;;;;10411625;28;20033;-52
2021/06/21 17:29:40;;;;;;;1.65;0.80;;;23.20;62.20;;;;;;10412185;28;20501;-53
2021/06/21 17:34:41;;;;;;;1.38;0.98;;;23.20;62.20;;;;;;10412457;28;20037;-53
2021/06/21 17:39:43;;;;;;;1.58;1.05;;;23.20;62.30;;;;;;10411926;28;20030;-52
2021/06/21 17:44:46;;;;;;;1.45;1.00;;;23.20;62.10;;;;;;10412220;28;20025;-53
2021/06/21 17:49:47;;;;;;;1.75;1.25;;;23.20;62.00;;;;;;10410233;28;70773;-54
2021/06/21 17:54:48;;;;;;;1.45;1.27;;;23.20;62.10;;;;;;10413527;28;20120;-53
2021/06/21 17:59:49;;;;;;;2.33;1.27;;;23.20;62.00;;;;;;10421520;28;20034;-53
2021/06/21 18:04:49;;;;;;;1.98;1.05;;;23.20;61.90;;;;;;10413379;28;20069;-53
2021/06/21 18:09:50;;;;;;;1.30;1.10;;;23.20;61.90;;;;;;10413353;28;20103;-54
2021/06/21 18:14:51;;;;;;;1.98;1.30;;;23.20;61.80;;;;;;10413290;28;20044;-54
2021/06/21 18:19:52;;;;;;;1.73;1.25;;;23.20;61.90;;;;;;10412929;28;20080;-53
2021/06/21 18:24:52;;;;;;;1.98;1.30;;;23.20;61.90;;;;;;10413088;28;20418;-53
2021/06/21 18:29:53;;;;;;;1.88;1.10;;;23.10;61.90;;;;;;10412680;28;20044;-53
2021/06/21 18:34:54;;;;;;;1.92;1.10;;;23.20;61.90;;;;;;10412743;28;20060;-54
2021/06/21 18:39:56;;;;;;;2.45;1.33;;;23.20;61.90;;;;;;10420222;28;20026;-54
2021/06/21 18:44:57;;;;;;;2.22;1.30;;;23.20;61.90;;;;;;10419896;28;20033;-52
2021/06/21 18:49:57;;;;;;;2.78;1.45;;;23.10;61.80;;;;;;10418373;28;20052;-51
2021/06/21 18:54:58;;;;;;;3.13;1.50;;;23.10;61.80;;;;;;10419751;28;20033;-54
2021/06/21 18:59:59;;;;;;;2.25;1.33;;;23.10;61.70;;;;;;10427623;28;20392;-54
2021/06/21 19:05:00;;;;;;;2.10;1.58;;;23.10;61.70;;;;;;10419154;28;20497;-53
2021/06/21 19:10:02;;;;;;;2.58;1.40;;;23.10;61.80;;;;;;10418883;28;20029;-54
2021/06/21 19:15:15;;;;;;;1.65;1.13;;;23.10;61.70;;;;;;10418863;28;20080;-53
2021/06/21 19:20:18;;;;;;;2.28;1.48;;;23.10;61.60;;;;;;10418520;28;20095;-54
2021/06/21 19:25:28;;;;;;;2.47;1.42;;;23.10;61.60;;;;;;10418418;28;20025;-52
2021/06/21 19:30:31;;;;;;;2.30;1.20;;;23.10;61.50;;;;;;10418128;28;20037;-54
2021/06/21 19:35:41;;;;;;;2.80;1.45;;;23.10;61.50;;;;;;10417951;28;20044;-52
2021/06/21 19:40:42;;;;;;;1.83;1.38;;;23.10;61.50;;;;;;10417791;28;20022;-54
2021/06/21 19:45:43;;;;;;;1.73;1.17;;;23.00;61.40;;;;;;10417599;28;20105;-51
2021/06/21 19:50:45;;;;;;;2.63;1.70;;;23.00;61.40;;;;;;10416206;28;20669;-53
2021/06/21 19:55:54;;;;;;;2.60;1.67;;;23.00;61.40;;;;;;10417124;28;20363;-50
2021/06/21 20:00:56;;;;;;;2.17;1.45;;;23.00;61.40;;;;;;10424610;28;20046;-54
2021/06/21 20:05:58;;;;;;;2.90;1.23;;;23.00;61.30;;;;;;10416877;28;20542;-53
2021/06/21 20:10:59;;;;;;;2.13;1.35;;;23.00;61.30;;;;;;10416421;28;20136;-52
2021/06/21 20:16:01;;;;;;;1.67;1.58;;;23.00;61.30;;;;;;10416444;28;20059;-54
2021/06/21 20:21:01;;;;;;;2.90;1.60;;;23.00;61.30;;;;;;10416380;28;20049;-53
2021/06/21 20:26:03;;;;;;;2.55;1.52;;;23.00;61.30;;;;;;10414486;28;20112;-54
2021/06/21 20:31:04;;;;;;;3.30;1.75;;;23.00;61.20;;;;;;10414516;28;20044;-53
2021/06/21 20:36:07;;;;;;;4.53;1.63;;;23.00;61.20;;;;;;10415659;28;20057;-52
2021/06/21 20:41:08;;;;;;;2.15;1.40;;;22.90;61.20;;;;;;10415898;28;20477;-52
2021/06/21 20:46:09;;;;;;;3.53;1.85;;;22.90;61.00;;;;;;10413646;28;20029;-52
2021/06/21 20:51:09;;;;;;;2.95;1.55;;;22.90;61.00;;;;;;10414573;28;20132;-53
2021/06/21 20:56:10;;;;;;;4.13;2.08;;;22.90;61.00;;;;;;10414345;28;20125;-53
2021/06/21 21:01:11;;;;;;;2.72;1.70;;;22.90;61.00;;;;;;10421854;28;20155;-53
2021/06/21 21:06:12;;;;;;;3.05;1.52;;;22.90;61.00;;;;;;10414111;28;20025;-53
2021/06/21 21:11:13;;;;;;;4.07;2.50;;;22.90;61.00;;;;;;10414252;28;20021;-53
2021/06/21 21:16:14;;;;;;;2.67;1.77;;;22.90;60.90;;;;;;10413868;28;20034;-53
2021/06/21 21:21:14;;;;;;;1.95;1.38;;;22.90;60.90;;;;;;10413705;28;20055;-52
2021/06/21 21:26:15;;;;;;;2.10;1.60;;;22.90;60.90;;;;;;10414113;28;20057;-53
2021/06/21 21:31:16;;;;;;;3.00;1.88;;;22.90;60.90;;;;;;10413583;28;20497;-52
2021/06/21 21:36:16;;;;;;;5.18;1.90;;;22.90;60.80;;;;;;10413357;28;20034;-53
2021/06/21 21:41:17;;;;;;;1.83;1.67;;;22.90;60.80;;;;;;10413227;28;20386;-53
2021/06/21 21:46:18;;;;;;;2.22;1.70;;;22.90;60.80;;;;;;10413266;28;20029;-53
2021/06/21 21:51:18;;;;;;;3.13;2.17;;;22.80;60.80;;;;;;10413074;28;20401;-53
2021/06/21 21:56:19;;;;;;;2.25;1.70;;;22.80;60.80;;;;;;10412970;28;20108;-54
2021/06/21 22:01:20;;;;;;;5.03;2.22;;;22.80;60.70;;;;;;10421340;28;20026;-53
2021/06/21 22:06:20;;;;;;;3.10;1.75;;;22.80;60.70;;;;;;10428157;28;20091;-53
2021/06/21 22:11:21;;;;;;;3.28;2.00;;;22.80;60.70;;;;;;10415388;28;20033;-53
2021/06/21 22:16:22;;;;;;;2.45;2.10;;;22.80;60.60;;;;;;10420573;28;20434;-51
2021/06/21 22:21:23;;;;;;;4.07;2.15;;;22.80;60.50;;;;;;10420470;28;20060;-52
2021/06/21 22:26:23;;;;;;;5.03;2.17;;;22.80;60.50;;;;;;10420192;28;20037;-50
2021/06/21 22:31:24;;;;;;;4.15;2.50;;;22.80;60.50;;;;;;10420128;28;20059;-53
2021/06/21 22:36:25;;;;;;;2.85;2.00;;;22.80;60.50;;;;;;10419776;28;20097;-54
2021/06/21 22:41:25;;;;;;;4.35;2.47;;;22.80;60.40;;;;;;10418542;28;20101;-53
2021/06/21 22:46:26;;;;;;;3.45;2.13;;;22.80;60.40;;;;;;10419395;28;20080;-52
2021/06/21 22:51:27;;;;;;;3.65;2.10;;;22.70;60.30;;;;;;10406071;28;20077;-53
2021/06/21 22:56:29;;;;;;;2.65;1.90;;;22.70;60.30;;;;;;10418972;28;20481;-51
2021/06/21 23:01:29;;;;;;;5.68;2.55;;;22.70;60.40;;;;;;10407886;28;20040;-52
2021/06/21 23:06:31;;;;;;;2.85;1.80;;;22.70;60.40;;;;;;10418756;28;20417;-54
2021/06/21 23:11:33;;;;;;;3.53;2.17;;;22.70;60.40;;;;;;10418480;28;20061;-52
2021/06/21 23:16:34;;;;;;;4.15;2.50;;;22.70;60.30;;;;;;10418360;28;20116;-52
2021/06/21 23:21:35;;;;;;;3.33;2.00;;;22.70;60.30;;;;;;10418066;28;20029;-52
2021/06/21 23:26:36;;;;;;;3.72;2.33;;;22.70;60.30;;;;;;10418374;28;20405;-52
2021/06/21 23:31:36;;;;;;;3.13;2.10;;;22.70;60.20;;;;;;10417708;28;20025;-53
2021/06/21 23:36:37;;;;;;;3.03;2.00;;;22.70;60.20;;;;;;10417491;28;20029;-53
2021/06/21 23:41:38;;;;;;;5.25;2.55;;;22.70;60.10;;;;;;10417355;28;20036;-54
2021/06/21 23:46:39;;;;;;;3.97;2.20;;;22.70;60.10;;;;;;10417273;28;20029;-51
2021/06/21 23:51:39;;;;;;;2.80;2.10;;;22.70;60.10;;;;;;10402115;28;20136;-53
2021/06/21 23:56:40;;;;;;;3.83;2.70;;;22.70;60.10;;;;;;10418103;28;20021;-52
